sensor_id;sensor_type;location;lat;lon;timestamp;temperature;humidity
24902;DHT22;31328;51.402;0.016;2023-06-05T00:01:57;12.30;95.10
24902;DHT22;31328;51.402;0.016;2023-06-05T00:04:23;12.30;95.10
24902;DHT22;31328;51.402;0.016;2023-06-05T00:06:50;12.30;95.00
24902;DHT22;31328;51.402;0.016;2023-06-05T00:09:17;12.30;95.10
24902;DHT22;31328;51.402;0.016;2023-06-05T00:11:43;12.30;95.10
24902;DHT22;31328;51.402;0.016;2023-06-05T00:14:10;12.40;95.10
24902;DHT22;31328;51.402;0.016;2023-06-05T00:16:36;12.40;95.00
24902;DHT22;31328;51.402;0.016;2023-06-05T00:19:03;12.40;95.00
24902;DHT22;31328;51.402;0.016;2023-06-05T00:21:29;12.30;95.00
24902;DHT22;31328;51.402;0.016;2023-06-05T00:23:56;12.30;95.40
24902;DHT22;31328;51.402;0.016;2023-06-05T00:26:22;12.30;95.10
24902;DHT22;31328;51.402;0.016;2023-06-05T00:28:51;12.30;95.10
24902;DHT22;31328;51.402;0.016;2023-06-05T00:31:17;12.30;95.10
24902;DHT22;31328;51.402;0.016;2023-06-05T00:33:45;12.30;95.10
24902;DHT22;31328;51.402;0.016;2023-06-05T00:36:11;12.30;95.10
24902;DHT22;31328;51.402;0.016;2023-06-05T00:38:37;12.20;95.00
24902;DHT22;31328;51.402;0.016;2023-06-05T00:41:04;12.30;95.10
24902;DHT22;31328;51.402;0.016;2023-06-05T00:43:30;12.20;95.10
24902;DHT22;31328;51.402;0.016;2023-06-05T00:46:01;12.20;95.10
24902;DHT22;31328;51.402;0.016;2023-06-05T00:48:29;12.30;95.10
24902;DHT22;31328;51.402;0.016;2023-06-05T00:50:57;12.30;95.10
24902;DHT22;31328;51.402;0.016;2023-06-05T00:53:24;12.20;95.10
24902;DHT22;31328;51.402;0.016;2023-06-05T00:55:52;12.30;95.10
24902;DHT22;31328;51.402;0.016;2023-06-05T00:58:19;12.30;95.10
24902;DHT22;31328;51.402;0.016;2023-06-05T01:00:45;12.20;95.10
24902;DHT22;31328;51.402;0.016;2023-06-05T01:03:17;12.20;95.10
24902;DHT22;31328;51.402;0.016;2023-06-05T01:05:43;12.20;95.10
24902;DHT22;31328;51.402;0.016;2023-06-05T01:08:10;12.20;95.10
24902;DHT22;31328;51.402;0.016;2023-06-05T01:10:38;12.20;95.20
24902;DHT22;31328;51.402;0.016;2023-06-05T01:15:41;12.20;95.20
24902;DHT22;31328;51.402;0.016;2023-06-05T01:18:09;12.20;95.20
24902;DHT22;31328;51.402;0.016;2023-06-05T01:20:37;12.10;95.20
24902;DHT22;31328;51.402;0.016;2023-06-05T01:23:07;12.10;95.20
24902;DHT22;31328;51.402;0.016;2023-06-05T01:25:34;12.10;95.20
24902;DHT22;31328;51.402;0.016;2023-06-05T01:28:10;12.10;95.20
24902;DHT22;31328;51.402;0.016;2023-06-05T01:30:46;12.20;95.20
24902;DHT22;31328;51.402;0.016;2023-06-05T01:33:32;12.20;95.20
24902;DHT22;31328;51.402;0.016;2023-06-05T01:36:10;12.10;95.10
24902;DHT22;31328;51.402;0.016;2023-06-05T01:38:39;12.10;95.20
24902;DHT22;31328;51.402;0.016;2023-06-05T01:41:07;12.10;95.20
24902;DHT22;31328;51.402;0.016;2023-06-05T01:43:34;12.00;95.20
24902;DHT22;31328;51.402;0.016;2023-06-05T01:46:05;12.00;95.30
24902;DHT22;31328;51.402;0.016;2023-06-05T01:48:34;12.00;95.40
24902;DHT22;31328;51.402;0.016;2023-06-05T01:51:01;12.00;95.40
24902;DHT22;31328;51.402;0.016;2023-06-05T01:53:29;11.90;95.30
24902;DHT22;31328;51.402;0.016;2023-06-05T01:55:56;12.00;95.40
24902;DHT22;31328;51.402;0.016;2023-06-05T01:58:24;11.90;95.40
24902;DHT22;31328;51.402;0.016;2023-06-05T02:00:52;11.90;95.40
24902;DHT22;31328;51.402;0.016;2023-06-05T02:03:19;11.90;95.40
24902;DHT22;31328;51.402;0.016;2023-06-05T02:05:46;11.90;95.50
24902;DHT22;31328;51.402;0.016;2023-06-05T02:08:12;11.80;95.40
24902;DHT22;31328;51.402;0.016;2023-06-05T02:10:40;11.90;95.50
24902;DHT22;31328;51.402;0.016;2023-06-05T02:13:09;11.80;95.50
24902;DHT22;31328;51.402;0.016;2023-06-05T02:15:37;11.80;95.50
24902;DHT22;31328;51.402;0.016;2023-06-05T02:18:03;11.80;95.50
24902;DHT22;31328;51.402;0.016;2023-06-05T02:20:31;11.80;95.60
24902;DHT22;31328;51.402;0.016;2023-06-05T02:22:58;11.70;95.50
24902;DHT22;31328;51.402;0.016;2023-06-05T02:25:25;11.70;95.50
24902;DHT22;31328;51.402;0.016;2023-06-05T02:27:55;11.70;95.50
24902;DHT22;31328;51.402;0.016;2023-06-05T02:30:24;11.80;95.50
24902;DHT22;31328;51.402;0.016;2023-06-05T02:32:51;11.80;95.40
24902;DHT22;31328;51.402;0.016;2023-06-05T02:35:27;11.70;95.40
24902;DHT22;31328;51.402;0.016;2023-06-05T02:37:54;11.70;95.40
24902;DHT22;31328;51.402;0.016;2023-06-05T02:40:22;11.70;95.40
24902;DHT22;31328;51.402;0.016;2023-06-05T02:42:49;11.70;95.50
24902;DHT22;31328;51.402;0.016;2023-06-05T02:45:17;11.60;95.50
24902;DHT22;31328;51.402;0.016;2023-06-05T02:47:43;11.60;95.60
24902;DHT22;31328;51.402;0.016;2023-06-05T02:50:11;11.60;95.60
24902;DHT22;31328;51.402;0.016;2023-06-05T02:52:41;11.60;95.60
24902;DHT22;31328;51.402;0.016;2023-06-05T02:55:20;11.70;95.60
24902;DHT22;31328;51.402;0.016;2023-06-05T02:57:49;11.70;95.50
24902;DHT22;31328;51.402;0.016;2023-06-05T03:00:19;11.70;95.50
24902;DHT22;31328;51.402;0.016;2023-06-05T03:02:51;11.70;95.50
24902;DHT22;31328;51.402;0.016;2023-06-05T03:05:21;11.70;95.40
24902;DHT22;31328;51.402;0.016;2023-06-05T03:07:53;11.70;95.50
24902;DHT22;31328;51.402;0.016;2023-06-05T03:10:20;11.70;95.50
24902;DHT22;31328;51.402;0.016;2023-06-05T03:12:48;11.70;95.40
24902;DHT22;31328;51.402;0.016;2023-06-05T03:15:14;11.80;95.50
24902;DHT22;31328;51.402;0.016;2023-06-05T03:17:42;11.80;95.50
24902;DHT22;31328;51.402;0.016;2023-06-05T03:20:09;11.80;95.50
24902;DHT22;31328;51.402;0.016;2023-06-05T03:22:36;11.80;95.50
24902;DHT22;31328;51.402;0.016;2023-06-05T03:25:03;11.80;95.50
24902;DHT22;31328;51.402;0.016;2023-06-05T03:27:31;11.80;95.50
24902;DHT22;31328;51.402;0.016;2023-06-05T03:29:57;11.80;95.50
24902;DHT22;31328;51.402;0.016;2023-06-05T03:32:25;11.80;95.50
24902;DHT22;31328;51.402;0.016;2023-06-05T03:34:51;11.90;95.60
24902;DHT22;31328;51.402;0.016;2023-06-05T03:37:19;11.90;95.60
24902;DHT22;31328;51.402;0.016;2023-06-05T03:39:47;11.90;95.60
24902;DHT22;31328;51.402;0.016;2023-06-05T03:42:13;11.90;95.60
24902;DHT22;31328;51.402;0.016;2023-06-05T03:44:40;11.90;95.60
24902;DHT22;31328;51.402;0.016;2023-06-05T03:47:07;12.00;95.60
24902;DHT22;31328;51.402;0.016;2023-06-05T03:49:34;12.00;95.70
24902;DHT22;31328;51.402;0.016;2023-06-05T03:52:02;12.10;95.70
24902;DHT22;31328;51.402;0.016;2023-06-05T03:54:28;12.10;95.70
24902;DHT22;31328;51.402;0.016;2023-06-05T03:56:55;12.10;95.60
24902;DHT22;31328;51.402;0.016;2023-06-05T03:59:23;12.10;95.60
24902;DHT22;31328;51.402;0.016;2023-06-05T04:01:57;12.10;95.50
24902;DHT22;31328;51.402;0.016;2023-06-05T04:04:24;12.10;95.50
24902;DHT22;31328;51.402;0.016;2023-06-05T04:06:54;12.10;95.50
24902;DHT22;31328;51.402;0.016;2023-06-05T04:09:23;12.10;95.50
24902;DHT22;31328;51.402;0.016;2023-06-05T04:11:49;12.10;95.50
24902;DHT22;31328;51.402;0.016;2023-06-05T04:14:16;12.20;95.50
24902;DHT22;31328;51.402;0.016;2023-06-05T04:16:44;12.10;95.50
24902;DHT22;31328;51.402;0.016;2023-06-05T04:19:15;12.20;95.50
24902;DHT22;31328;51.402;0.016;2023-06-05T04:21:44;12.10;95.50
24902;DHT22;31328;51.402;0.016;2023-06-05T04:24:11;12.20;95.50
24902;DHT22;31328;51.402;0.016;2023-06-05T04:26:39;12.20;95.50
24902;DHT22;31328;51.402;0.016;2023-06-05T04:29:07;12.20;95.50
24902;DHT22;31328;51.402;0.016;2023-06-05T04:31:42;12.20;95.50
24902;DHT22;31328;51.402;0.016;2023-06-05T04:34:09;12.20;95.50
24902;DHT22;31328;51.402;0.016;2023-06-05T04:36:35;12.20;95.60
24902;DHT22;31328;51.402;0.016;2023-06-05T04:39:03;12.20;95.60
24902;DHT22;31328;51.402;0.016;2023-06-05T04:41:45;12.20;95.60
24902;DHT22;31328;51.402;0.016;2023-06-05T04:44:15;12.20;95.60
24902;DHT22;31328;51.402;0.016;2023-06-05T04:46:46;12.20;95.60
24902;DHT22;31328;51.402;0.016;2023-06-05T04:49:14;12.30;95.60
24902;DHT22;31328;51.402;0.016;2023-06-05T04:51:42;12.30;95.60
24902;DHT22;31328;51.402;0.016;2023-06-05T04:54:10;12.30;95.60
24902;DHT22;31328;51.402;0.016;2023-06-05T04:56:38;12.30;95.60
24902;DHT22;31328;51.402;0.016;2023-06-05T04:59:06;12.30;95.60
24902;DHT22;31328;51.402;0.016;2023-06-05T05:01:33;12.40;95.50
24902;DHT22;31328;51.402;0.016;2023-06-05T05:04:00;12.40;95.50
24902;DHT22;31328;51.402;0.016;2023-06-05T05:06:26;12.30;95.50
24902;DHT22;31328;51.402;0.016;2023-06-05T05:08:53;12.30;95.40
24902;DHT22;31328;51.402;0.016;2023-06-05T05:11:20;12.30;95.50
24902;DHT22;31328;51.402;0.016;2023-06-05T05:13:47;12.40;95.50
24902;DHT22;31328;51.402;0.016;2023-06-05T05:16:14;12.40;95.50
24902;DHT22;31328;51.402;0.016;2023-06-05T05:18:43;12.40;95.50
24902;DHT22;31328;51.402;0.016;2023-06-05T05:21:10;12.50;95.50
24902;DHT22;31328;51.402;0.016;2023-06-05T05:23:37;12.50;95.40
24902;DHT22;31328;51.402;0.016;2023-06-05T05:26:03;12.50;95.30
24902;DHT22;31328;51.402;0.016;2023-06-05T05:28:30;12.50;95.30
24902;DHT22;31328;51.402;0.016;2023-06-05T05:30:57;12.60;95.20
24902;DHT22;31328;51.402;0.016;2023-06-05T05:33:24;12.60;95.20
24902;DHT22;31328;51.402;0.016;2023-06-05T05:35:51;12.60;95.20
24902;DHT22;31328;51.402;0.016;2023-06-05T05:38:18;12.70;95.10
24902;DHT22;31328;51.402;0.016;2023-06-05T05:40:44;12.70;95.10
24902;DHT22;31328;51.402;0.016;2023-06-05T05:43:11;12.70;95.20
24902;DHT22;31328;51.402;0.016;2023-06-05T05:45:37;12.70;95.10
24902;DHT22;31328;51.402;0.016;2023-06-05T05:48:06;12.70;95.10
24902;DHT22;31328;51.402;0.016;2023-06-05T05:50:32;12.70;95.00
24902;DHT22;31328;51.402;0.016;2023-06-05T05:52:58;12.70;95.00
24902;DHT22;31328;51.402;0.016;2023-06-05T05:55:25;12.70;95.00
24902;DHT22;31328;51.402;0.016;2023-06-05T05:57:51;12.70;95.00
24902;DHT22;31328;51.402;0.016;2023-06-05T06:00:18;12.80;94.90
24902;DHT22;31328;51.402;0.016;2023-06-05T06:02:44;12.80;94.80
24902;DHT22;31328;51.402;0.016;2023-06-05T06:05:11;12.70;94.60
24902;DHT22;31328;51.402;0.016;2023-06-05T06:07:38;12.70;94.60
24902;DHT22;31328;51.402;0.016;2023-06-05T06:10:07;12.70;94.60
24902;DHT22;31328;51.402;0.016;2023-06-05T06:12:34;12.70;94.60
24902;DHT22;31328;51.402;0.016;2023-06-05T06:15:00;12.70;94.60
24902;DHT22;31328;51.402;0.016;2023-06-05T06:17:27;12.70;94.60
24902;DHT22;31328;51.402;0.016;2023-06-05T06:19:54;12.70;94.60
24902;DHT22;31328;51.402;0.016;2023-06-05T06:22:21;12.70;94.70
24902;DHT22;31328;51.402;0.016;2023-06-05T06:24:47;12.80;94.70
24902;DHT22;31328;51.402;0.016;2023-06-05T06:27:14;12.80;94.70
24902;DHT22;31328;51.402;0.016;2023-06-05T06:29:51;12.80;94.70
24902;DHT22;31328;51.402;0.016;2023-06-05T06:32:21;12.80;94.70
24902;DHT22;31328;51.402;0.016;2023-06-05T06:34:49;12.80;94.80
24902;DHT22;31328;51.402;0.016;2023-06-05T06:37:15;12.90;94.80
24902;DHT22;31328;51.402;0.016;2023-06-05T06:39:42;12.90;94.80
24902;DHT22;31328;51.402;0.016;2023-06-05T06:42:09;12.90;94.80
24902;DHT22;31328;51.402;0.016;2023-06-05T06:44:37;13.00;94.80
24902;DHT22;31328;51.402;0.016;2023-06-05T06:47:05;13.00;94.70
24902;DHT22;31328;51.402;0.016;2023-06-05T06:49:32;13.00;94.70
24902;DHT22;31328;51.402;0.016;2023-06-05T06:51:59;13.10;94.80
24902;DHT22;31328;51.402;0.016;2023-06-05T06:54:25;13.10;94.90
24902;DHT22;31328;51.402;0.016;2023-06-05T06:56:52;13.10;94.70
24902;DHT22;31328;51.402;0.016;2023-06-05T06:59:19;13.20;94.60
24902;DHT22;31328;51.402;0.016;2023-06-05T07:01:46;13.20;94.50
24902;DHT22;31328;51.402;0.016;2023-06-05T07:04:15;13.20;94.40
24902;DHT22;31328;51.402;0.016;2023-06-05T07:06:44;13.20;94.40
24902;DHT22;31328;51.402;0.016;2023-06-05T07:09:10;13.20;94.40
24902;DHT22;31328;51.402;0.016;2023-06-05T07:11:37;13.20;94.40
24902;DHT22;31328;51.402;0.016;2023-06-05T07:14:08;13.20;94.40
24902;DHT22;31328;51.402;0.016;2023-06-05T07:16:39;13.30;94.40
24902;DHT22;31328;51.402;0.016;2023-06-05T07:19:06;13.30;94.40
24902;DHT22;31328;51.402;0.016;2023-06-05T07:21:32;13.30;94.50
24902;DHT22;31328;51.402;0.016;2023-06-05T07:24:05;13.40;94.40
24902;DHT22;31328;51.402;0.016;2023-06-05T07:26:31;13.40;94.30
24902;DHT22;31328;51.402;0.016;2023-06-05T07:28:58;13.50;94.30
24902;DHT22;31328;51.402;0.016;2023-06-05T07:31:24;13.40;94.10
24902;DHT22;31328;51.402;0.016;2023-06-05T07:33:50;13.40;94.10
24902;DHT22;31328;51.402;0.016;2023-06-05T07:36:17;13.50;94.10
24902;DHT22;31328;51.402;0.016;2023-06-05T07:38:43;13.50;94.20
24902;DHT22;31328;51.402;0.016;2023-06-05T07:41:11;13.50;94.20
24902;DHT22;31328;51.402;0.016;2023-06-05T07:43:37;13.50;94.20
24902;DHT22;31328;51.402;0.016;2023-06-05T07:46:06;13.60;94.10
24902;DHT22;31328;51.402;0.016;2023-06-05T07:48:32;13.60;94.00
24902;DHT22;31328;51.402;0.016;2023-06-05T07:50:59;13.60;94.00
24902;DHT22;31328;51.402;0.016;2023-06-05T07:53:25;13.60;94.00
24902;DHT22;31328;51.402;0.016;2023-06-05T07:55:52;13.70;94.10
24902;DHT22;31328;51.402;0.016;2023-06-05T07:58:18;13.70;94.00
24902;DHT22;31328;51.402;0.016;2023-06-05T08:00:45;13.70;94.00
24902;DHT22;31328;51.402;0.016;2023-06-05T08:03:16;13.70;94.00
24902;DHT22;31328;51.402;0.016;2023-06-05T08:05:47;13.80;94.10
24902;DHT22;31328;51.402;0.016;2023-06-05T08:08:13;13.70;94.30
24902;DHT22;31328;51.402;0.016;2023-06-05T08:10:40;13.80;93.90
24902;DHT22;31328;51.402;0.016;2023-06-05T08:13:08;13.80;93.90
24902;DHT22;31328;51.402;0.016;2023-06-05T08:15:34;13.70;93.90
24902;DHT22;31328;51.402;0.016;2023-06-05T08:18:01;13.70;93.90
24902;DHT22;31328;51.402;0.016;2023-06-05T08:20:27;13.70;94.00
24902;DHT22;31328;51.402;0.016;2023-06-05T08:22:55;13.70;94.00
24902;DHT22;31328;51.402;0.016;2023-06-05T08:25:24;13.70;94.00
24902;DHT22;31328;51.402;0.016;2023-06-05T08:27:50;13.70;94.10
24902;DHT22;31328;51.402;0.016;2023-06-05T08:30:17;13.80;94.20
24902;DHT22;31328;51.402;0.016;2023-06-05T08:32:43;13.70;94.10
24902;DHT22;31328;51.402;0.016;2023-06-05T08:35:10;13.80;94.20
24902;DHT22;31328;51.402;0.016;2023-06-05T08:37:39;13.80;94.10
24902;DHT22;31328;51.402;0.016;2023-06-05T08:40:05;13.90;94.10
24902;DHT22;31328;51.402;0.016;2023-06-05T08:42:33;13.90;94.00
24902;DHT22;31328;51.402;0.016;2023-06-05T08:45:00;14.00;94.00
24902;DHT22;31328;51.402;0.016;2023-06-05T08:47:28;14.00;94.00
24902;DHT22;31328;51.402;0.016;2023-06-05T08:49:56;14.00;93.90
24902;DHT22;31328;51.402;0.016;2023-06-05T08:52:23;14.10;93.80
24902;DHT22;31328;51.402;0.016;2023-06-05T08:54:52;14.10;93.80
24902;DHT22;31328;51.402;0.016;2023-06-05T08:57:20;14.10;93.60
24902;DHT22;31328;51.402;0.016;2023-06-05T08:59:49;14.10;93.60
24902;DHT22;31328;51.402;0.016;2023-06-05T09:02:16;14.10;93.70
24902;DHT22;31328;51.402;0.016;2023-06-05T09:04:42;14.10;93.70
24902;DHT22;31328;51.402;0.016;2023-06-05T09:07:08;14.10;93.70
24902;DHT22;31328;51.402;0.016;2023-06-05T09:09:35;14.20;93.70
24902;DHT22;31328;51.402;0.016;2023-06-05T09:12:02;14.30;93.80
24902;DHT22;31328;51.402;0.016;2023-06-05T09:14:29;14.40;93.70
24902;DHT22;31328;51.402;0.016;2023-06-05T09:17:00;14.40;93.60
24902;DHT22;31328;51.402;0.016;2023-06-05T09:19:39;14.40;93.60
24902;DHT22;31328;51.402;0.016;2023-06-05T09:22:07;14.50;93.70
24902;DHT22;31328;51.402;0.016;2023-06-05T09:24:33;14.50;93.70
24902;DHT22;31328;51.402;0.016;2023-06-05T09:27:01;14.50;93.70
24902;DHT22;31328;51.402;0.016;2023-06-05T09:29:33;14.60;93.60
24902;DHT22;31328;51.402;0.016;2023-06-05T09:32:05;14.60;93.60
24902;DHT22;31328;51.402;0.016;2023-06-05T09:34:39;14.70;93.40
24902;DHT22;31328;51.402;0.016;2023-06-05T09:37:10;14.70;93.40
24902;DHT22;31328;51.402;0.016;2023-06-05T09:39:38;14.70;93.30
24902;DHT22;31328;51.402;0.016;2023-06-05T09:42:05;14.80;93.20
24902;DHT22;31328;51.402;0.016;2023-06-05T09:44:32;14.80;93.10
24902;DHT22;31328;51.402;0.016;2023-06-05T09:47:01;14.90;93.20
24902;DHT22;31328;51.402;0.016;2023-06-05T09:49:46;14.90;93.10
24902;DHT22;31328;51.402;0.016;2023-06-05T09:52:13;15.10;93.10
24902;DHT22;31328;51.402;0.016;2023-06-05T09:54:45;15.20;92.70
24902;DHT22;31328;51.402;0.016;2023-06-05T09:57:13;15.30;92.50
24902;DHT22;31328;51.402;0.016;2023-06-05T09:59:53;15.30;92.40
24902;DHT22;31328;51.402;0.016;2023-06-05T10:02:23;15.40;92.20
24902;DHT22;31328;51.402;0.016;2023-06-05T10:04:55;15.40;92.20
24902;DHT22;31328;51.402;0.016;2023-06-05T10:07:23;15.50;92.00
24902;DHT22;31328;51.402;0.016;2023-06-05T10:09:50;15.50;91.80
24902;DHT22;31328;51.402;0.016;2023-06-05T10:12:17;15.50;91.50
24902;DHT22;31328;51.402;0.016;2023-06-05T10:14:43;15.60;91.60
24902;DHT22;31328;51.402;0.016;2023-06-05T10:17:12;15.60;91.60
24902;DHT22;31328;51.402;0.016;2023-06-05T10:19:43;15.70;91.60
24902;DHT22;31328;51.402;0.016;2023-06-05T10:22:12;15.80;91.40
24902;DHT22;31328;51.402;0.016;2023-06-05T10:24:47;15.90;91.30
24902;DHT22;31328;51.402;0.016;2023-06-05T10:32:58;16.20;91.00
24902;DHT22;31328;51.402;0.016;2023-06-05T10:38:21;16.50;90.50
24902;DHT22;31328;51.402;0.016;2023-06-05T10:40:55;16.60;90.60
24902;DHT22;31328;51.402;0.016;2023-06-05T10:46:02;16.80;90.40
24902;DHT22;31328;51.402;0.016;2023-06-05T10:51:42;17.00;90.00
24902;DHT22;31328;51.402;0.016;2023-06-05T10:59:25;17.10;89.50
24902;DHT22;31328;51.402;0.016;2023-06-05T11:07:21;17.00;89.60
24902;DHT22;31328;51.402;0.016;2023-06-05T11:10:07;17.00;89.30
24902;DHT22;31328;51.402;0.016;2023-06-05T11:15:15;16.80;89.60
24902;DHT22;31328;51.402;0.016;2023-06-05T11:17:44;16.80;89.50
24902;DHT22;31328;51.402;0.016;2023-06-05T11:27:52;16.80;89.10
24902;DHT22;31328;51.402;0.016;2023-06-05T11:30:24;16.80;88.90
24902;DHT22;31328;51.402;0.016;2023-06-05T11:32:52;16.80;88.90
24902;DHT22;31328;51.402;0.016;2023-06-05T11:35:27;16.80;88.80
24902;DHT22;31328;51.402;0.016;2023-06-05T11:38:11;16.80;88.50
24902;DHT22;31328;51.402;0.016;2023-06-05T11:40:39;16.90;88.20
24902;DHT22;31328;51.402;0.016;2023-06-05T11:43:07;16.90;88.50
24902;DHT22;31328;51.402;0.016;2023-06-05T11:45:35;17.00;88.60
24902;DHT22;31328;51.402;0.016;2023-06-05T11:50:35;17.30;88.30
24902;DHT22;31328;51.402;0.016;2023-06-05T11:55:31;17.50;87.70
24902;DHT22;31328;51.402;0.016;2023-06-05T11:58:25;17.50;87.50
24902;DHT22;31328;51.402;0.016;2023-06-05T12:00:52;17.60;87.50
24902;DHT22;31328;51.402;0.016;2023-06-05T12:03:29;17.60;87.30
24902;DHT22;31328;51.402;0.016;2023-06-05T12:05:55;17.60;86.90
24902;DHT22;31328;51.402;0.016;2023-06-05T12:08:25;17.70;87.00
24902;DHT22;31328;51.402;0.016;2023-06-05T12:10:55;17.70;86.70
24902;DHT22;31328;51.402;0.016;2023-06-05T12:13:44;17.70;86.20
24902;DHT22;31328;51.402;0.016;2023-06-05T12:16:10;17.70;85.80
24902;DHT22;31328;51.402;0.016;2023-06-05T12:18:37;17.70;86.20
24902;DHT22;31328;51.402;0.016;2023-06-05T12:21:03;17.80;86.40
24902;DHT22;31328;51.402;0.016;2023-06-05T12:23:32;17.90;86.70
24902;DHT22;31328;51.402;0.016;2023-06-05T12:26:03;18.10;86.20
24902;DHT22;31328;51.402;0.016;2023-06-05T12:28:30;18.10;85.50
24902;DHT22;31328;51.402;0.016;2023-06-05T12:30:57;18.30;84.90
24902;DHT22;31328;51.402;0.016;2023-06-05T12:33:24;18.30;84.80
24902;DHT22;31328;51.402;0.016;2023-06-05T12:36:07;18.40;84.80
24902;DHT22;31328;51.402;0.016;2023-06-05T12:38:37;18.50;84.60
24902;DHT22;31328;51.402;0.016;2023-06-05T12:41:04;18.50;84.40
24902;DHT22;31328;51.402;0.016;2023-06-05T12:43:37;18.60;84.20
24902;DHT22;31328;51.402;0.016;2023-06-05T12:46:05;18.60;83.90
24902;DHT22;31328;51.402;0.016;2023-06-05T12:48:32;18.70;83.90
24902;DHT22;31328;51.402;0.016;2023-06-05T12:50:58;18.70;84.10
24902;DHT22;31328;51.402;0.016;2023-06-05T12:53:25;18.70;83.80
24902;DHT22;31328;51.402;0.016;2023-06-05T12:55:51;18.70;83.60
24902;DHT22;31328;51.402;0.016;2023-06-05T12:58:17;18.70;83.50
24902;DHT22;31328;51.402;0.016;2023-06-05T13:00:44;18.70;83.50
24902;DHT22;31328;51.402;0.016;2023-06-05T13:03:11;18.70;83.60
24902;DHT22;31328;51.402;0.016;2023-06-05T13:05:38;18.70;83.20
24902;DHT22;31328;51.402;0.016;2023-06-05T13:08:04;18.70;82.80
24902;DHT22;31328;51.402;0.016;2023-06-05T13:10:32;18.70;82.70
24902;DHT22;31328;51.402;0.016;2023-06-05T13:12:58;18.60;82.40
24902;DHT22;31328;51.402;0.016;2023-06-05T13:15:24;18.50;82.60
24902;DHT22;31328;51.402;0.016;2023-06-05T13:17:51;18.50;82.70
24902;DHT22;31328;51.402;0.016;2023-06-05T13:20:17;18.40;82.90
24902;DHT22;31328;51.402;0.016;2023-06-05T13:22:43;18.60;83.40
24902;DHT22;31328;51.402;0.016;2023-06-05T13:25:10;18.70;83.20
24902;DHT22;31328;51.402;0.016;2023-06-05T13:27:36;18.80;82.00
24902;DHT22;31328;51.402;0.016;2023-06-05T13:30:03;18.90;81.90
24902;DHT22;31328;51.402;0.016;2023-06-05T13:32:31;19.00;81.50
24902;DHT22;31328;51.402;0.016;2023-06-05T13:34:58;19.20;81.20
24902;DHT22;31328;51.402;0.016;2023-06-05T13:37:24;19.20;80.70
24902;DHT22;31328;51.402;0.016;2023-06-05T13:39:51;19.20;80.40
24902;DHT22;31328;51.402;0.016;2023-06-05T13:42:17;19.30;80.60
24902;DHT22;31328;51.402;0.016;2023-06-05T13:44:44;19.30;80.50
24902;DHT22;31328;51.402;0.016;2023-06-05T13:47:10;19.40;80.20
24902;DHT22;31328;51.402;0.016;2023-06-05T13:49:37;19.40;80.20
24902;DHT22;31328;51.402;0.016;2023-06-05T13:52:03;19.40;80.30
24902;DHT22;31328;51.402;0.016;2023-06-05T13:54:30;19.40;80.00
24902;DHT22;31328;51.402;0.016;2023-06-05T13:56:56;19.40;80.00
24902;DHT22;31328;51.402;0.016;2023-06-05T13:59:22;19.40;80.20
24902;DHT22;31328;51.402;0.016;2023-06-05T14:01:48;19.40;80.20
24902;DHT22;31328;51.402;0.016;2023-06-05T14:04:15;19.40;79.80
24902;DHT22;31328;51.402;0.016;2023-06-05T14:06:41;19.40;79.70
24902;DHT22;31328;51.402;0.016;2023-06-05T14:09:08;19.40;79.50
24902;DHT22;31328;51.402;0.016;2023-06-05T14:11:34;19.40;79.70
24902;DHT22;31328;51.402;0.016;2023-06-05T14:14:02;19.50;79.80
24902;DHT22;31328;51.402;0.016;2023-06-05T14:16:29;19.60;79.90
24902;DHT22;31328;51.402;0.016;2023-06-05T14:18:56;19.80;79.70
24902;DHT22;31328;51.402;0.016;2023-06-05T14:21:22;19.80;79.20
24902;DHT22;31328;51.402;0.016;2023-06-05T14:23:48;19.90;78.90
24902;DHT22;31328;51.402;0.016;2023-06-05T14:26:15;19.90;78.60
24902;DHT22;31328;51.402;0.016;2023-06-05T14:28:41;19.90;78.70
24902;DHT22;31328;51.402;0.016;2023-06-05T14:31:08;19.90;78.60
24902;DHT22;31328;51.402;0.016;2023-06-05T14:33:34;19.90;78.60
24902;DHT22;31328;51.402;0.016;2023-06-05T14:36:00;19.90;78.50
24902;DHT22;31328;51.402;0.016;2023-06-05T14:38:26;19.90;78.40
24902;DHT22;31328;51.402;0.016;2023-06-05T14:40:53;19.90;78.00
24902;DHT22;31328;51.402;0.016;2023-06-05T14:43:19;19.90;77.50
24902;DHT22;31328;51.402;0.016;2023-06-05T14:45:46;19.90;77.40
24902;DHT22;31328;51.402;0.016;2023-06-05T14:48:12;19.90;77.50
24902;DHT22;31328;51.402;0.016;2023-06-05T14:50:38;19.90;77.70
24902;DHT22;31328;51.402;0.016;2023-06-05T14:53:05;19.90;77.70
24902;DHT22;31328;51.402;0.016;2023-06-05T14:55:31;20.00;77.50
24902;DHT22;31328;51.402;0.016;2023-06-05T14:57:57;20.10;77.50
24902;DHT22;31328;51.402;0.016;2023-06-05T15:00:24;20.10;77.40
24902;DHT22;31328;51.402;0.016;2023-06-05T15:02:50;20.20;77.60
24902;DHT22;31328;51.402;0.016;2023-06-05T15:05:16;20.30;77.20
24902;DHT22;31328;51.402;0.016;2023-06-05T15:07:42;20.40;76.70
24902;DHT22;31328;51.402;0.016;2023-06-05T15:10:10;20.40;76.40
24902;DHT22;31328;51.402;0.016;2023-06-05T15:12:38;20.30;76.50
24902;DHT22;31328;51.402;0.016;2023-06-05T15:15:07;20.20;76.70
24902;DHT22;31328;51.402;0.016;2023-06-05T15:17:33;20.10;76.70
24902;DHT22;31328;51.402;0.016;2023-06-05T15:20:00;20.10;76.60
24902;DHT22;31328;51.402;0.016;2023-06-05T15:22:26;20.10;76.50
24902;DHT22;31328;51.402;0.016;2023-06-05T15:24:52;20.00;76.80
24902;DHT22;31328;51.402;0.016;2023-06-05T15:27:19;20.00;76.40
24902;DHT22;31328;51.402;0.016;2023-06-05T15:29:45;20.00;76.40
24902;DHT22;31328;51.402;0.016;2023-06-05T15:32:11;20.00;76.30
24902;DHT22;31328;51.402;0.016;2023-06-05T15:34:37;20.00;76.40
24902;DHT22;31328;51.402;0.016;2023-06-05T15:37:08;20.00;76.40
24902;DHT22;31328;51.402;0.016;2023-06-05T15:39:36;20.10;76.70
24902;DHT22;31328;51.402;0.016;2023-06-05T15:42:02;20.10;76.60
24902;DHT22;31328;51.402;0.016;2023-06-05T15:44:28;20.00;76.30
24902;DHT22;31328;51.402;0.016;2023-06-05T15:46:55;20.00;76.60
24902;DHT22;31328;51.402;0.016;2023-06-05T15:49:22;20.00;76.80
24902;DHT22;31328;51.402;0.016;2023-06-05T15:51:49;20.00;76.90
24902;DHT22;31328;51.402;0.016;2023-06-05T15:54:15;20.10;77.10
24902;DHT22;31328;51.402;0.016;2023-06-05T15:56:41;20.10;76.80
24902;DHT22;31328;51.402;0.016;2023-06-05T15:59:08;20.10;76.70
24902;DHT22;31328;51.402;0.016;2023-06-05T16:01:34;20.20;76.30
24902;DHT22;31328;51.402;0.016;2023-06-05T16:04:00;20.20;76.00
24902;DHT22;31328;51.402;0.016;2023-06-05T16:06:27;20.10;75.80
24902;DHT22;31328;51.402;0.016;2023-06-05T16:08:54;20.00;75.70
24902;DHT22;31328;51.402;0.016;2023-06-05T16:11:20;19.90;76.20
24902;DHT22;31328;51.402;0.016;2023-06-05T16:13:46;19.80;76.20
24902;DHT22;31328;51.402;0.016;2023-06-05T16:16:13;19.70;76.20
24902;DHT22;31328;51.402;0.016;2023-06-05T16:18:40;19.60;76.40